Historique des stations

Station météo de Mainvilliers

Altitude de la station : 298 m







Données météorologiques pour le 20/01/2022
Date
Heure
Températures Humidité Point de rosée Vitesse
du vent
Direction Rafales Windchill Pression Pluviométrie
Cumul
Date
Heure
Températures Humidité Point de rosée Vitesse
du vent
Direction Rafales Windchill Pression Pluviométrie
Cumul
20/01/2022 14:316.7 °C82 %3.9 °C6 km/hNO21 km/h5.6 1033 hPa-
20/01/2022 14:266.6 °C82 %3.9 °C11 km/hNO26 km/h4.4 1034 hPa-
20/01/2022 14:166.5 °C83 %3.9 °C13 km/hNO26 km/h3.9 1034 hPa-
20/01/2022 14:116.6 °C82 %3.9 °C8 km/hNO26 km/h5.0 1034 hPa-
20/01/2022 14:016.6 °C84 %3.9 °C16 km/hNNO23 km/h3.3 1034 hPa-
20/01/2022 14:006.4 °C84 %3.9 °C3 km/hN24 km/h6.1 1034 hPa-
20/01/2022 13:465.9 °C86 %3.9 °C8 km/hNO21 km/h4.4 1034 hPa-
20/01/2022 13:415.9 °C86 %3.9 °C13 km/hNNO24 km/h3.3 1034 hPa-
20/01/2022 13:316.0 °C87 %3.9 °C14 km/hNO23 km/h2.8 1034 hPa-
20/01/2022 13:265.8 °C88 %3.9 °C8 km/hNNO24 km/h4.4 1034 hPa-
20/01/2022 13:165.3 °C88 %3.3 °C8 km/hONO24 km/h3.3 1034 hPa-
20/01/2022 13:115.4 °C89 %3.9 °C13 km/hNO21 km/h2.8 1034 hPa-
20/01/2022 13:015.4 °C88 %3.3 °C13 km/hNO19 km/h2.8 1034 hPa-
20/01/2022 13:005.4 °C88 %3.9 °C10 km/hNO21 km/h3.3 1034 hPa-
20/01/2022 12:465.4 °C88 %3.3 °C13 km/hN23 km/h2.8 1034 hPa-
20/01/2022 12:415.4 °C86 %3.3 °C8 km/hNNO21 km/h3.3 1034 hPa-
20/01/2022 12:315.7 °C87 %3.9 °C14 km/hNNO19 km/h2.2 1034 hPa-
20/01/2022 12:265.8 °C89 %3.9 °C8 km/hNNO21 km/h3.3 1034 hPa-
20/01/2022 12:165.4 °C88 %3.3 °C6 km/hNO18 km/h4.4 1034 hPa-
20/01/2022 12:115.3 °C88 %3.3 °C14 km/hNO21 km/h2.2 1034 hPa-
20/01/2022 12:015.2 °C88 %3.3 °C6 km/hN14 km/h3.9 1034 hPa-
20/01/2022 12:005.2 °C88 %3.3 °C6 km/hN21 km/h3.9 1034 hPa-
20/01/2022 11:464.7 °C89 %3.3 °C11 km/hNO16 km/h1.7 1034 hPa-
20/01/2022 11:414.8 °C89 %3.3 °C8 km/hONO21 km/h2.8 1034 hPa-
20/01/2022 11:314.9 °C89 %3.3 °C6 km/hNO16 km/h3.9 1034 hPa-
20/01/2022 11:264.6 °C88 %2.8 °C5 km/hNO21 km/h3.3 1034 hPa-
20/01/2022 11:164.6 °C90 %3.3 °C8 km/hNO18 km/h2.2 1034 hPa-
20/01/2022 11:114.2 °C90 %2.8 °C10 km/hONO21 km/h2.2 1033 hPa-
20/01/2022 11:013.9 °C89 %2.2 °C6 km/hONO21 km/h2.2 1033 hPa-
20/01/2022 11:003.9 °C89 %2.2 °C14 km/hONO19 km/h0.6 1033 hPa-
20/01/2022 10:464.2 °C87 %2.2 °C13 km/hONO18 km/h1.7 1033 hPa-
20/01/2022 10:414.6 °C86 %2.8 °C8 km/hNO16 km/h2.2 1033 hPa-
20/01/2022 10:315.4 °C87 %3.3 °C5 km/hNO10 km/h5.0 1033 hPa-
20/01/2022 10:264.2 °C86 %2.2 °C5 km/hNO16 km/h3.3 1033 hPa-
20/01/2022 10:164.6 °C86 %2.8 °C5 km/hNO8 km/h3.3 1033 hPa-
20/01/2022 10:113.9 °C87 %2.2 °C5 km/hNO16 km/h2.8 1033 hPa-
20/01/2022 10:014.7 °C86 %2.8 °C-NO6 km/h5.0 1033 hPa-
20/01/2022 10:004.8 °C89 %3.3 °C5 km/hNO16 km/h4.4 1033 hPa-
20/01/2022 09:462.5 °C90 %1.1 °C6 km/hNO13 km/h1.1 1033 hPa-
20/01/2022 09:412.2 °C90 %0.6 °C8 km/hNO16 km/h0.0 1033 hPa-
20/01/2022 09:312.2 °C91 %1.1 °C11 km/hNO13 km/h-0.6 1033 hPa-
20/01/2022 09:262.4 °C91 %1.1 °C6 km/hNO16 km/h0.6 1033 hPa-
20/01/2022 09:162.2 °C93 %1.1 °C3 km/hNNO8 km/h1.1 1033 hPa-
20/01/2022 09:111.8 °C94 %1.1 °C5 km/hNNO16 km/h0.6 1033 hPa-
20/01/2022 09:011.8 °C94 %1.1 °C8 km/hNNO10 km/h-1.1 1033 hPa-
20/01/2022 09:001.8 °C94 %1.1 °C5 km/hNO16 km/h0.6 1033 hPa-
20/01/2022 08:461.9 °C94 %1.1 °C5 km/hNO6 km/h0.6 1033 hPa-
20/01/2022 08:411.9 °C94 %1.1 °C5 km/hNO16 km/h1.1 1032 hPa-
20/01/2022 08:312.0 °C95 %1.1 °C2 km/hNO6 km/h1.7 1032 hPa-
20/01/2022 08:262.1 °C95 %1.1 °C3 km/hNO16 km/h1.1 1032 hPa-
20/01/2022 08:161.8 °C95 %1.1 °C2 km/hNO8 km/h1.1 1032 hPa-
20/01/2022 08:111.7 °C95 %1.1 °C5 km/hNO16 km/h0.6 1032 hPa-
20/01/2022 08:011.7 °C95 %1.1 °C6 km/hNO13 km/h0.0 1032 hPa-
20/01/2022 08:001.7 °C95 %1.1 °C8 km/hNO16 km/h-1.1 1032 hPa-
20/01/2022 07:461.9 °C95 %1.1 °C6 km/hNO10 km/h0.0 1032 hPa-
20/01/2022 07:412.1 °C95 %1.1 °C6 km/hNO16 km/h0.6 1032 hPa-
20/01/2022 07:311.8 °C95 %1.1 °C6 km/hNO10 km/h0.0 1032 hPa-
20/01/2022 07:261.7 °C95 %1.1 °C5 km/hNO16 km/h0.6 1031 hPa-
20/01/2022 07:161.8 °C95 %1.1 °C3 km/hNO10 km/h0.6 1032 hPa-
20/01/2022 07:111.8 °C95 %1.1 °C5 km/hNO16 km/h0.6 1031 hPa-
20/01/2022 07:012.1 °C95 %1.7 °C8 km/hNO10 km/h0.0 1031 hPa-
20/01/2022 07:002.2 °C95 %1.7 °C6 km/hNO16 km/h0.6 1031 hPa-
20/01/2022 06:462.0 °C95 %1.1 °C3 km/hNO10 km/h1.1 1031 hPa-
20/01/2022 06:411.9 °C95 %1.1 °C6 km/hNO16 km/h0.6 1031 hPa-
20/01/2022 06:312.0 °C95 %1.1 °C5 km/hNO13 km/h1.1 1031 hPa-
20/01/2022 06:262.1 °C95 %1.1 °C5 km/hNO16 km/h1.1 1031 hPa-
20/01/2022 06:162.2 °C95 %1.7 °C8 km/hNO13 km/h0.0 1031 hPa-
20/01/2022 06:112.2 °C95 %1.7 °C5 km/hNO16 km/h1.1 1031 hPa-
20/01/2022 06:012.4 °C95 %1.7 °C6 km/hNO6 km/h0.6 1031 hPa-
20/01/2022 06:002.4 °C95 %1.7 °C5 km/hNO16 km/h1.1 1031 hPa-
20/01/2022 05:462.5 °C95 %1.7 °C5 km/hNO10 km/h1.7 1031 hPa-
20/01/2022 05:402.6 °C95 %1.7 °C8 km/hNO16 km/h0.6 1031 hPa-
20/01/2022 05:312.6 °C95 %1.7 °C5 km/hNO10 km/h1.7 1031 hPa-
20/01/2022 05:262.7 °C95 %2.2 °C8 km/hNO16 km/h0.6 1031 hPa-
20/01/2022 05:162.8 °C95 %2.2 °C6 km/hNO13 km/h1.1 1031 hPa-
20/01/2022 05:112.9 °C95 %2.2 °C6 km/hNO16 km/h1.1 1031 hPa-
20/01/2022 05:012.9 °C95 %2.2 °C6 km/hNO13 km/h1.1 1031 hPa-
20/01/2022 05:002.9 °C95 %2.2 °C6 km/hNO16 km/h1.1 1031 hPa-
20/01/2022 04:463.1 °C95 %2.2 °C5 km/hNO10 km/h2.2 1031 hPa-
20/01/2022 04:413.2 °C95 %2.8 °C5 km/hNO16 km/h2.2 1030 hPa-
20/01/2022 04:313.4 °C95 %2.8 °C6 km/hNO8 km/h1.7 1030 hPa-
20/01/2022 04:263.4 °C95 %2.8 °C5 km/hNO16 km/h2.2 1030 hPa-
20/01/2022 04:163.6 °C95 %2.8 °C6 km/hNO10 km/h1.7 1030 hPa-
20/01/2022 04:113.6 °C95 %2.8 °C3 km/hNO16 km/h2.8 1030 hPa-
20/01/2022 04:013.7 °C95 %2.8 °C5 km/hNO13 km/h2.8 1031 hPa-
20/01/2022 04:003.7 °C95 %2.8 °C8 km/hNNO16 km/h1.7 1030 hPa-
20/01/2022 03:463.8 °C95 %3.3 °C8 km/hNO13 km/h1.7 1031 hPa-
20/01/2022 03:413.9 °C95 %3.3 °C6 km/hNNO16 km/h2.2 1031 hPa-
20/01/2022 03:314.1 °C95 %3.3 °C11 km/hONO14 km/h1.1 1031 hPa-
20/01/2022 03:264.2 °C95 %3.3 °C8 km/hONO16 km/h2.2 1030 hPa-
20/01/2022 03:164.3 °C95 %3.9 °C5 km/hONO16 km/h3.3 1030 hPa-
20/01/2022 03:114.3 °C95 %3.9 °C13 km/hONO16 km/h1.7 1030 hPa-
20/01/2022 03:014.4 °C95 %3.9 °C6 km/hNO16 km/h2.8 1030 hPa-
20/01/2022 03:004.4 °C95 %3.9 °C10 km/hNO16 km/h2.2 1030 hPa-
20/01/2022 02:464.5 °C95 %3.9 °C8 km/hNO14 km/h2.2 1030 hPa-
20/01/2022 02:414.6 °C95 %3.9 °C5 km/hNO16 km/h3.3 1030 hPa-
20/01/2022 02:304.8 °C95 %3.9 °C6 km/hNO10 km/h3.9 1030 hPa-
20/01/2022 02:264.9 °C95 %4.4 °C5 km/hNO16 km/h4.4 1029 hPa-
20/01/2022 02:165.1 °C95 %4.4 °C5 km/hNO8 km/h4.4 1029 hPa-
20/01/2022 02:115.2 °C95 %4.4 °C3 km/hNO16 km/h4.4 1029 hPa-
20/01/2022 02:015.3 °C95 %4.4 °C5 km/hNO6 km/h5.0 1029 hPa-
20/01/2022 02:005.4 °C95 %4.4 °C5 km/hNO16 km/h5.0 1029 hPa-
20/01/2022 01:465.6 °C95 %5.0 °C3 km/hNO6 km/h5.0 1029 hPa-
20/01/2022 01:415.7 °C95 %5.0 °C5 km/hNO16 km/h5.0 1029 hPa-
20/01/2022 01:315.7 °C95 %5.0 °C6 km/hNO16 km/h4.4 1029 hPa-
20/01/2022 01:265.7 °C95 %5.0 °C8 km/hONO16 km/h3.3 1030 hPa-
20/01/2022 01:165.7 °C95 %5.0 °C8 km/hNO16 km/h3.3 1030 hPa-
20/01/2022 01:115.7 °C95 %5.0 °C13 km/hNO16 km/h2.8 1030 hPa-
20/01/2022 01:015.7 °C95 %5.0 °C14 km/hNO14 km/h2.2 1030 hPa-
20/01/2022 01:005.7 °C95 %5.0 °C13 km/hNO14 km/h2.8 1030 hPa-
20/01/2022 00:465.7 °C95 %5.0 °C11 km/hONO14 km/h2.8 1029 hPa-
20/01/2022 00:415.6 °C95 %5.0 °C6 km/hNO11 km/h4.4 1030 hPa-
20/01/2022 00:315.6 °C95 %5.0 °C2 km/hONO8 km/h5.6 1029 hPa-
20/01/2022 00:265.4 °C95 %5.0 °C2 km/hONO11 km/h5.6 1030 hPa-
20/01/2022 00:165.3 °C95 %4.4 °C-O8 km/h5.6 1030 hPa-
20/01/2022 00:115.3 °C95 %4.4 °C6 km/hO11 km/h4.4 1029 hPa-
20/01/2022 00:015.2 °C95 %4.4 °C3 km/hO11 km/h4.4 1029 hPa-
20/01/2022 00:005.2 °C95 %4.4 °C6 km/hO3 km/h3.9 1030 hPa-


Minima :

Température : 1.7 °C
Humidité : 82 %
Point de rosée : 0.6 °C
Vent moyen : 2 km/h
Windchill : -1.1
Pression atm. : 1029 hPa
Maxima :

Température : 6.7 °C
Humidité : 95 %
Point de rosée : 5.0 °C
Vent moyen : 16 km/h
Windchill : 6.1
Pression atm. : 1034 hPa
Rafales max : 26 km/h
Cumul de pluie sur 24H : 0 mm

Mainvilliers est une commune du département Eure-et-Loir (28).
La station météorologique du réseau de l'association la plus proche de Mainvilliers est celle de Chaudon
Site du propriétaire de la station : http://meteo28300.fr/



Icône Facebook Association Météo Centre Icône Twitter Association Météo Centre Icône Chaîne Youtube Association Météo Centre Icône contact Association Météo Centre Icône Insta Association Météo Centre